sensor_id;sensor_type;location;lat;lon;timestamp;P1;durP1;ratioP1;P2;durP2;ratioP2
10643;SDS011;5370;50.132;8.626;2022-07-23T00:00:29;5.38;;;4.80;;
10643;SDS011;5370;50.132;8.626;2022-07-23T00:03:03;6.55;;;5.63;;
10643;SDS011;5370;50.132;8.626;2022-07-23T00:05:28;6.20;;;4.82;;
10643;SDS011;5370;50.132;8.626;2022-07-23T00:07:54;9.48;;;5.63;;
10643;SDS011;5370;50.132;8.626;2022-07-23T00:10:20;6.60;;;5.78;;
10643;SDS011;5370;50.132;8.626;2022-07-23T00:12:45;5.82;;;5.30;;
10643;SDS011;5370;50.132;8.626;2022-07-23T00:15:11;5.82;;;5.32;;
10643;SDS011;5370;50.132;8.626;2022-07-23T00:17:37;5.80;;;5.30;;
10643;SDS011;5370;50.132;8.626;2022-07-23T00:20:03;7.60;;;5.30;;
10643;SDS011;5370;50.132;8.626;2022-07-23T00:22:29;8.90;;;4.72;;
10643;SDS011;5370;50.132;8.626;2022-07-23T00:24:57;6.93;;;5.05;;
10643;SDS011;5370;50.132;8.626;2022-07-23T00:27:23;5.93;;;5.13;;
10643;SDS011;5370;50.132;8.626;2022-07-23T00:29:49;7.20;;;5.47;;
10643;SDS011;5370;50.132;8.626;2022-07-23T00:32:15;6.13;;;5.53;;
10643;SDS011;5370;50.132;8.626;2022-07-23T00:34:40;5.60;;;4.93;;
10643;SDS011;5370;50.132;8.626;2022-07-23T00:37:06;5.88;;;5.35;;
10643;SDS011;5370;50.132;8.626;2022-07-23T00:39:32;6.28;;;5.32;;
10643;SDS011;5370;50.132;8.626;2022-07-23T00:41:57;7.13;;;5.53;;
10643;SDS011;5370;50.132;8.626;2022-07-23T00:44:24;6.63;;;4.78;;
10643;SDS011;5370;50.132;8.626;2022-07-23T00:46:52;8.38;;;5.50;;
10643;SDS011;5370;50.132;8.626;2022-07-23T00:49:20;6.95;;;6.15;;
10643;SDS011;5370;50.132;8.626;2022-07-23T00:51:47;5.63;;;4.93;;
10643;SDS011;5370;50.132;8.626;2022-07-23T00:54:14;5.63;;;5.13;;
10643;SDS011;5370;50.132;8.626;2022-07-23T00:56:41;5.97;;;5.28;;
10643;SDS011;5370;50.132;8.626;2022-07-23T00:59:08;6.80;;;4.78;;
10643;SDS011;5370;50.132;8.626;2022-07-23T01:01:34;7.70;;;5.55;;
10643;SDS011;5370;50.132;8.626;2022-07-23T01:03:59;6.45;;;5.07;;
10643;SDS011;5370;50.132;8.626;2022-07-23T01:06:25;5.93;;;5.30;;
10643;SDS011;5370;50.132;8.626;2022-07-23T01:08:51;6.65;;;4.50;;
10643;SDS011;5370;50.132;8.626;2022-07-23T01:11:17;6.82;;;5.47;;
10643;SDS011;5370;50.132;8.626;2022-07-23T01:13:44;6.68;;;5.22;;
10643;SDS011;5370;50.132;8.626;2022-07-23T01:16:09;7.85;;;5.80;;
10643;SDS011;5370;50.132;8.626;2022-07-23T01:18:35;6.85;;;5.38;;
10643;SDS011;5370;50.132;8.626;2022-07-23T01:21:01;7.32;;;5.70;;
10643;SDS011;5370;50.132;8.626;2022-07-23T01:23:26;7.78;;;5.32;;
10643;SDS011;5370;50.132;8.626;2022-07-23T01:25:52;6.53;;;5.57;;
10643;SDS011;5370;50.132;8.626;2022-07-23T01:28:18;6.00;;;5.45;;
10643;SDS011;5370;50.132;8.626;2022-07-23T01:30:44;9.45;;;5.68;;
10643;SDS011;5370;50.132;8.626;2022-07-23T01:33:10;6.97;;;5.60;;
10643;SDS011;5370;50.132;8.626;2022-07-23T01:35:36;9.32;;;5.30;;
10643;SDS011;5370;50.132;8.626;2022-07-23T01:38:01;12.40;;;5.43;;
10643;SDS011;5370;50.132;8.626;2022-07-23T01:40:27;7.68;;;6.05;;
10643;SDS011;5370;50.132;8.626;2022-07-23T01:42:53;5.80;;;5.13;;
10643;SDS011;5370;50.132;8.626;2022-07-23T01:45:18;7.45;;;4.97;;
10643;SDS011;5370;50.132;8.626;2022-07-23T01:47:44;6.72;;;5.22;;
10643;SDS011;5370;50.132;8.626;2022-07-23T01:50:09;8.52;;;6.05;;
10643;SDS011;5370;50.132;8.626;2022-07-23T01:52:35;6.00;;;5.40;;
10643;SDS011;5370;50.132;8.626;2022-07-23T01:55:00;7.28;;;5.53;;
10643;SDS011;5370;50.132;8.626;2022-07-23T01:57:26;8.25;;;5.60;;
10643;SDS011;5370;50.132;8.626;2022-07-23T01:59:52;7.10;;;6.22;;
10643;SDS011;5370;50.132;8.626;2022-07-23T02:02:17;6.63;;;5.78;;
10643;SDS011;5370;50.132;8.626;2022-07-23T02:04:43;6.38;;;5.78;;
10643;SDS011;5370;50.132;8.626;2022-07-23T02:07:08;8.93;;;6.30;;
10643;SDS011;5370;50.132;8.626;2022-07-23T02:09:34;8.77;;;6.35;;
10643;SDS011;5370;50.132;8.626;2022-07-23T02:12:00;8.32;;;6.20;;
10643;SDS011;5370;50.132;8.626;2022-07-23T02:14:25;6.05;;;5.50;;
10643;SDS011;5370;50.132;8.626;2022-07-23T02:16:52;6.47;;;5.88;;
10643;SDS011;5370;50.132;8.626;2022-07-23T02:19:17;7.60;;;6.10;;
10643;SDS011;5370;50.132;8.626;2022-07-23T02:21:43;6.53;;;5.97;;
10643;SDS011;5370;50.132;8.626;2022-07-23T02:24:09;6.50;;;5.80;;
10643;SDS011;5370;50.132;8.626;2022-07-23T02:26:35;8.38;;;6.15;;
10643;SDS011;5370;50.132;8.626;2022-07-23T02:29:01;8.95;;;5.93;;
10643;SDS011;5370;50.132;8.626;2022-07-23T02:31:28;6.25;;;5.72;;
10643;SDS011;5370;50.132;8.626;2022-07-23T02:33:54;9.55;;;5.88;;
10643;SDS011;5370;50.132;8.626;2022-07-23T02:36:20;9.80;;;6.20;;
10643;SDS011;5370;50.132;8.626;2022-07-23T02:38:46;6.68;;;6.07;;
10643;SDS011;5370;50.132;8.626;2022-07-23T02:41:12;6.40;;;4.93;;
10643;SDS011;5370;50.132;8.626;2022-07-23T02:43:38;7.22;;;6.00;;
10643;SDS011;5370;50.132;8.626;2022-07-23T02:46:03;6.38;;;5.72;;
10643;SDS011;5370;50.132;8.626;2022-07-23T02:48:29;9.73;;;6.22;;
10643;SDS011;5370;50.132;8.626;2022-07-23T02:50:55;6.07;;;5.45;;
10643;SDS011;5370;50.132;8.626;2022-07-23T02:53:21;6.93;;;5.95;;
10643;SDS011;5370;50.132;8.626;2022-07-23T02:55:47;6.60;;;5.57;;
10643;SDS011;5370;50.132;8.626;2022-07-23T02:58:13;8.32;;;5.93;;
10643;SDS011;5370;50.132;8.626;2022-07-23T03:00:38;6.32;;;5.65;;
10643;SDS011;5370;50.132;8.626;2022-07-23T03:03:04;7.68;;;4.82;;
10643;SDS011;5370;50.132;8.626;2022-07-23T03:05:30;6.20;;;5.63;;
10643;SDS011;5370;50.132;8.626;2022-07-23T03:07:55;6.72;;;6.03;;
10643;SDS011;5370;50.132;8.626;2022-07-23T03:10:21;5.88;;;5.25;;
10643;SDS011;5370;50.132;8.626;2022-07-23T03:12:46;6.80;;;5.00;;
10643;SDS011;5370;50.132;8.626;2022-07-23T03:15:12;8.18;;;5.05;;
10643;SDS011;5370;50.132;8.626;2022-07-23T03:17:37;6.47;;;5.88;;
10643;SDS011;5370;50.132;8.626;2022-07-23T03:20:03;6.35;;;5.45;;
10643;SDS011;5370;50.132;8.626;2022-07-23T03:22:29;7.13;;;5.60;;
10643;SDS011;5370;50.132;8.626;2022-07-23T03:24:54;7.03;;;5.47;;
10643;SDS011;5370;50.132;8.626;2022-07-23T03:27:21;6.28;;;5.70;;
10643;SDS011;5370;50.132;8.626;2022-07-23T03:29:48;5.97;;;5.38;;
10643;SDS011;5370;50.132;8.626;2022-07-23T03:32:14;8.32;;;5.75;;
10643;SDS011;5370;50.132;8.626;2022-07-23T03:34:39;6.10;;;5.50;;
10643;SDS011;5370;50.132;8.626;2022-07-23T03:37:05;6.63;;;5.43;;
10643;SDS011;5370;50.132;8.626;2022-07-23T03:39:31;6.60;;;6.00;;
10643;SDS011;5370;50.132;8.626;2022-07-23T03:41:56;6.63;;;6.03;;
10643;SDS011;5370;50.132;8.626;2022-07-23T03:44:22;7.05;;;6.28;;
10643;SDS011;5370;50.132;8.626;2022-07-23T03:46:48;7.72;;;6.47;;
10643;SDS011;5370;50.132;8.626;2022-07-23T03:49:13;7.68;;;6.90;;
10643;SDS011;5370;50.132;8.626;2022-07-23T03:51:39;6.72;;;5.30;;
10643;SDS011;5370;50.132;8.626;2022-07-23T03:54:04;7.93;;;6.57;;
10643;SDS011;5370;50.132;8.626;2022-07-23T03:56:30;7.78;;;6.68;;
10643;SDS011;5370;50.132;8.626;2022-07-23T03:58:56;6.50;;;5.85;;
10643;SDS011;5370;50.132;8.626;2022-07-23T04:01:21;7.30;;;6.55;;
10643;SDS011;5370;50.132;8.626;2022-07-23T04:03:47;7.63;;;6.85;;
10643;SDS011;5370;50.132;8.626;2022-07-23T04:06:12;10.25;;;7.32;;
10643;SDS011;5370;50.132;8.626;2022-07-23T04:08:38;6.63;;;6.05;;
10643;SDS011;5370;50.132;8.626;2022-07-23T04:11:04;7.53;;;5.85;;
10643;SDS011;5370;50.132;8.626;2022-07-23T04:13:29;9.85;;;6.85;;
10643;SDS011;5370;50.132;8.626;2022-07-23T04:15:55;6.65;;;6.03;;
10643;SDS011;5370;50.132;8.626;2022-07-23T04:18:20;6.85;;;6.13;;
10643;SDS011;5370;50.132;8.626;2022-07-23T04:20:48;8.75;;;7.40;;
10643;SDS011;5370;50.132;8.626;2022-07-23T04:23:16;7.07;;;6.35;;
10643;SDS011;5370;50.132;8.626;2022-07-23T04:25:41;9.20;;;7.07;;
10643;SDS011;5370;50.132;8.626;2022-07-23T04:28:07;7.95;;;7.10;;
10643;SDS011;5370;50.132;8.626;2022-07-23T04:30:33;10.88;;;7.57;;
10643;SDS011;5370;50.132;8.626;2022-07-23T04:32:58;8.93;;;7.13;;
10643;SDS011;5370;50.132;8.626;2022-07-23T04:35:24;9.30;;;7.93;;
10643;SDS011;5370;50.132;8.626;2022-07-23T04:37:50;10.32;;;7.72;;
10643;SDS011;5370;50.132;8.626;2022-07-23T04:40:16;8.13;;;7.32;;
10643;SDS011;5370;50.132;8.626;2022-07-23T04:42:41;11.55;;;7.35;;
10643;SDS011;5370;50.132;8.626;2022-07-23T04:45:07;7.57;;;6.85;;
10643;SDS011;5370;50.132;8.626;2022-07-23T04:47:33;7.80;;;6.78;;
10643;SDS011;5370;50.132;8.626;2022-07-23T04:49:58;9.63;;;8.05;;
10643;SDS011;5370;50.132;8.626;2022-07-23T04:52:24;8.02;;;7.22;;
10643;SDS011;5370;50.132;8.626;2022-07-23T04:54:49;9.50;;;7.55;;
10643;SDS011;5370;50.132;8.626;2022-07-23T04:57:15;11.77;;;8.93;;
10643;SDS011;5370;50.132;8.626;2022-07-23T04:59:41;8.30;;;7.13;;
10643;SDS011;5370;50.132;8.626;2022-07-23T05:02:06;9.60;;;7.25;;
10643;SDS011;5370;50.132;8.626;2022-07-23T05:04:32;8.15;;;7.40;;
10643;SDS011;5370;50.132;8.626;2022-07-23T05:06:58;10.98;;;8.52;;
10643;SDS011;5370;50.132;8.626;2022-07-23T05:09:24;8.35;;;7.40;;
10643;SDS011;5370;50.132;8.626;2022-07-23T05:11:50;8.40;;;7.30;;
10643;SDS011;5370;50.132;8.626;2022-07-23T05:14:16;8.57;;;7.63;;
10643;SDS011;5370;50.132;8.626;2022-07-23T05:16:41;8.27;;;6.85;;
10643;SDS011;5370;50.132;8.626;2022-07-23T05:19:07;8.20;;;7.40;;
10643;SDS011;5370;50.132;8.626;2022-07-23T05:21:33;8.88;;;7.25;;
10643;SDS011;5370;50.132;8.626;2022-07-23T05:23:58;10.55;;;7.97;;
10643;SDS011;5370;50.132;8.626;2022-07-23T05:26:24;7.18;;;6.47;;
10643;SDS011;5370;50.132;8.626;2022-07-23T05:28:50;9.43;;;6.88;;
10643;SDS011;5370;50.132;8.626;2022-07-23T05:31:16;10.13;;;6.93;;
10643;SDS011;5370;50.132;8.626;2022-07-23T05:33:42;9.20;;;7.78;;
10643;SDS011;5370;50.132;8.626;2022-07-23T05:36:08;9.13;;;7.43;;
10643;SDS011;5370;50.132;8.626;2022-07-23T05:38:33;11.05;;;7.90;;
10643;SDS011;5370;50.132;8.626;2022-07-23T05:40:59;9.40;;;7.85;;
10643;SDS011;5370;50.132;8.626;2022-07-23T05:43:25;8.68;;;7.60;;
10643;SDS011;5370;50.132;8.626;2022-07-23T05:45:51;10.57;;;7.22;;
10643;SDS011;5370;50.132;8.626;2022-07-23T05:48:17;8.68;;;7.57;;
10643;SDS011;5370;50.132;8.626;2022-07-23T05:50:43;11.85;;;8.20;;
10643;SDS011;5370;50.132;8.626;2022-07-23T05:53:08;8.63;;;7.10;;
10643;SDS011;5370;50.132;8.626;2022-07-23T05:55:34;7.82;;;6.45;;
10643;SDS011;5370;50.132;8.626;2022-07-23T05:58:00;7.95;;;7.05;;
10643;SDS011;5370;50.132;8.626;2022-07-23T06:00:25;7.85;;;6.65;;
10643;SDS011;5370;50.132;8.626;2022-07-23T06:02:52;12.10;;;7.40;;
10643;SDS011;5370;50.132;8.626;2022-07-23T06:05:18;7.70;;;6.90;;
10643;SDS011;5370;50.132;8.626;2022-07-23T06:07:43;11.82;;;6.60;;
10643;SDS011;5370;50.132;8.626;2022-07-23T06:10:09;8.90;;;6.95;;
10643;SDS011;5370;50.132;8.626;2022-07-23T06:12:35;8.95;;;6.28;;
10643;SDS011;5370;50.132;8.626;2022-07-23T06:15:01;6.22;;;5.38;;
10643;SDS011;5370;50.132;8.626;2022-07-23T06:17:27;7.85;;;6.07;;
10643;SDS011;5370;50.132;8.626;2022-07-23T06:19:53;7.60;;;6.10;;
10643;SDS011;5370;50.132;8.626;2022-07-23T06:22:19;7.53;;;6.00;;
10643;SDS011;5370;50.132;8.626;2022-07-23T06:24:46;8.38;;;5.85;;
10643;SDS011;5370;50.132;8.626;2022-07-23T06:27:11;6.30;;;5.15;;
10643;SDS011;5370;50.132;8.626;2022-07-23T06:29:37;6.07;;;5.32;;
10643;SDS011;5370;50.132;8.626;2022-07-23T06:32:03;6.93;;;5.47;;
10643;SDS011;5370;50.132;8.626;2022-07-23T06:34:28;5.38;;;4.60;;
10643;SDS011;5370;50.132;8.626;2022-07-23T06:36:54;6.80;;;5.72;;
10643;SDS011;5370;50.132;8.626;2022-07-23T06:39:20;6.88;;;5.13;;
10643;SDS011;5370;50.132;8.626;2022-07-23T06:41:45;6.65;;;5.05;;
10643;SDS011;5370;50.132;8.626;2022-07-23T06:44:11;11.07;;;4.75;;
10643;SDS011;5370;50.132;8.626;2022-07-23T06:46:36;5.63;;;5.00;;
10643;SDS011;5370;50.132;8.626;2022-07-23T06:49:02;6.50;;;4.63;;
10643;SDS011;5370;50.132;8.626;2022-07-23T06:51:29;4.97;;;4.32;;
10643;SDS011;5370;50.132;8.626;2022-07-23T06:53:55;5.53;;;4.60;;
10643;SDS011;5370;50.132;8.626;2022-07-23T06:56:20;4.22;;;3.67;;
10643;SDS011;5370;50.132;8.626;2022-07-23T06:58:46;5.32;;;4.55;;
10643;SDS011;5370;50.132;8.626;2022-07-23T07:01:11;5.82;;;4.30;;
10643;SDS011;5370;50.132;8.626;2022-07-23T07:03:37;5.82;;;4.40;;
10643;SDS011;5370;50.132;8.626;2022-07-23T07:06:02;4.55;;;3.75;;
10643;SDS011;5370;50.132;8.626;2022-07-23T07:08:28;7.20;;;4.05;;
10643;SDS011;5370;50.132;8.626;2022-07-23T07:10:54;4.93;;;4.18;;
10643;SDS011;5370;50.132;8.626;2022-07-23T07:13:19;6.13;;;4.05;;
10643;SDS011;5370;50.132;8.626;2022-07-23T07:15:45;4.18;;;3.78;;
10643;SDS011;5370;50.132;8.626;2022-07-23T07:18:10;4.57;;;3.90;;
10643;SDS011;5370;50.132;8.626;2022-07-23T07:20:36;4.93;;;3.45;;
10643;SDS011;5370;50.132;8.626;2022-07-23T07:23:01;3.33;;;3.08;;
10643;SDS011;5370;50.132;8.626;2022-07-23T07:25:27;4.03;;;3.42;;
10643;SDS011;5370;50.132;8.626;2022-07-23T07:27:53;6.10;;;3.58;;
10643;SDS011;5370;50.132;8.626;2022-07-23T07:30:18;5.97;;;3.50;;
10643;SDS011;5370;50.132;8.626;2022-07-23T07:32:44;4.07;;;3.72;;
10643;SDS011;5370;50.132;8.626;2022-07-23T07:35:10;5.05;;;3.95;;
10643;SDS011;5370;50.132;8.626;2022-07-23T07:37:35;4.93;;;3.80;;
10643;SDS011;5370;50.132;8.626;2022-07-23T07:40:02;4.93;;;3.70;;
10643;SDS011;5370;50.132;8.626;2022-07-23T07:42:28;5.18;;;3.30;;
10643;SDS011;5370;50.132;8.626;2022-07-23T07:44:53;4.18;;;3.72;;
10643;SDS011;5370;50.132;8.626;2022-07-23T07:47:19;4.40;;;3.28;;
10643;SDS011;5370;50.132;8.626;2022-07-23T07:49:44;3.55;;;3.13;;
10643;SDS011;5370;50.132;8.626;2022-07-23T07:52:10;4.10;;;3.67;;
10643;SDS011;5370;50.132;8.626;2022-07-23T07:54:36;4.28;;;3.88;;
10643;SDS011;5370;50.132;8.626;2022-07-23T07:57:02;4.13;;;3.72;;
10643;SDS011;5370;50.132;8.626;2022-07-23T07:59:28;4.13;;;3.80;;
10643;SDS011;5370;50.132;8.626;2022-07-23T08:01:53;3.70;;;3.40;;
10643;SDS011;5370;50.132;8.626;2022-07-23T08:04:19;4.20;;;3.70;;
10643;SDS011;5370;50.132;8.626;2022-07-23T08:06:45;7.00;;;3.88;;
10643;SDS011;5370;50.132;8.626;2022-07-23T08:09:10;4.10;;;2.85;;
10643;SDS011;5370;50.132;8.626;2022-07-23T08:11:36;3.45;;;3.00;;
10643;SDS011;5370;50.132;8.626;2022-07-23T08:14:02;3.58;;;3.17;;
10643;SDS011;5370;50.132;8.626;2022-07-23T08:16:27;3.97;;;3.63;;
10643;SDS011;5370;50.132;8.626;2022-07-23T08:18:53;6.20;;;3.15;;
10643;SDS011;5370;50.132;8.626;2022-07-23T08:21:19;4.05;;;3.22;;
10643;SDS011;5370;50.132;8.626;2022-07-23T08:23:44;3.97;;;3.67;;
10643;SDS011;5370;50.132;8.626;2022-07-23T08:26:10;4.38;;;3.83;;
10643;SDS011;5370;50.132;8.626;2022-07-23T08:28:36;3.97;;;3.53;;
10643;SDS011;5370;50.132;8.626;2022-07-23T08:31:02;4.70;;;3.38;;
10643;SDS011;5370;50.132;8.626;2022-07-23T08:33:28;4.40;;;3.33;;
10643;SDS011;5370;50.132;8.626;2022-07-23T08:35:53;4.38;;;3.78;;
10643;SDS011;5370;50.132;8.626;2022-07-23T08:38:20;5.78;;;3.78;;
10643;SDS011;5370;50.132;8.626;2022-07-23T08:40:47;6.60;;;3.55;;
10643;SDS011;5370;50.132;8.626;2022-07-23T08:43:15;5.22;;;3.53;;
10643;SDS011;5370;50.132;8.626;2022-07-23T08:45:49;4.35;;;3.10;;
10643;SDS011;5370;50.132;8.626;2022-07-23T08:48:23;4.25;;;3.85;;
10643;SDS011;5370;50.132;8.626;2022-07-23T08:51:00;3.92;;;3.53;;
10643;SDS011;5370;50.132;8.626;2022-07-23T08:53:27;3.55;;;3.25;;
10643;SDS011;5370;50.132;8.626;2022-07-23T08:55:54;3.28;;;2.97;;
10643;SDS011;5370;50.132;8.626;2022-07-23T08:58:22;3.90;;;3.53;;
10643;SDS011;5370;50.132;8.626;2022-07-23T09:00:48;4.10;;;3.70;;
10643;SDS011;5370;50.132;8.626;2022-07-23T09:03:15;5.53;;;3.78;;
10643;SDS011;5370;50.132;8.626;2022-07-23T09:05:42;5.25;;;4.15;;
10643;SDS011;5370;50.132;8.626;2022-07-23T09:08:09;5.05;;;3.47;;
10643;SDS011;5370;50.132;8.626;2022-07-23T09:15:50;5.55;;;3.92;;
10643;SDS011;5370;50.132;8.626;2022-07-23T09:18:17;5.07;;;4.45;;
10643;SDS011;5370;50.132;8.626;2022-07-23T09:20:45;4.25;;;3.92;;
10643;SDS011;5370;50.132;8.626;2022-07-23T09:23:11;4.63;;;3.90;;
10643;SDS011;5370;50.132;8.626;2022-07-23T09:25:37;6.35;;;4.63;;
10643;SDS011;5370;50.132;8.626;2022-07-23T09:28:02;5.53;;;4.30;;
10643;SDS011;5370;50.132;8.626;2022-07-23T09:30:29;7.25;;;4.47;;
10643;SDS011;5370;50.132;8.626;2022-07-23T09:38:15;6.45;;;3.97;;
10643;SDS011;5370;50.132;8.626;2022-07-23T09:40:42;4.65;;;3.80;;
10643;SDS011;5370;50.132;8.626;2022-07-23T09:43:09;3.90;;;3.60;;
10643;SDS011;5370;50.132;8.626;2022-07-23T09:45:34;4.63;;;4.10;;
10643;SDS011;5370;50.132;8.626;2022-07-23T09:48:16;6.78;;;3.97;;
10643;SDS011;5370;50.132;8.626;2022-07-23T09:50:42;4.55;;;3.30;;
10643;SDS011;5370;50.132;8.626;2022-07-23T09:53:09;3.63;;;3.30;;
10643;SDS011;5370;50.132;8.626;2022-07-23T09:55:48;4.50;;;3.13;;
10643;SDS011;5370;50.132;8.626;2022-07-23T09:58:14;4.05;;;3.65;;
10643;SDS011;5370;50.132;8.626;2022-07-23T10:00:40;3.95;;;3.03;;
10643;SDS011;5370;50.132;8.626;2022-07-23T10:03:07;3.45;;;3.15;;
10643;SDS011;5370;50.132;8.626;2022-07-23T10:05:34;4.07;;;3.67;;
10643;SDS011;5370;50.132;8.626;2022-07-23T10:08:01;7.90;;;3.85;;
10643;SDS011;5370;50.132;8.626;2022-07-23T10:10:27;4.65;;;4.25;;
10643;SDS011;5370;50.132;8.626;2022-07-23T10:12:54;4.03;;;3.63;;
10643;SDS011;5370;50.132;8.626;2022-07-23T10:15:21;4.22;;;3.92;;
10643;SDS011;5370;50.132;8.626;2022-07-23T10:17:47;4.78;;;4.32;;
10643;SDS011;5370;50.132;8.626;2022-07-23T10:20:13;6.18;;;4.47;;
10643;SDS011;5370;50.132;8.626;2022-07-23T10:22:44;4.35;;;3.95;;
10643;SDS011;5370;50.132;8.626;2022-07-23T10:25:40;4.93;;;4.13;;
10643;SDS011;5370;50.132;8.626;2022-07-23T10:28:15;7.32;;;4.43;;
10643;SDS011;5370;50.132;8.626;2022-07-23T10:31:10;4.38;;;3.97;;
10643;SDS011;5370;50.132;8.626;2022-07-23T10:33:56;4.53;;;4.05;;
10643;SDS011;5370;50.132;8.626;2022-07-23T10:42:37;4.45;;;4.03;;
10643;SDS011;5370;50.132;8.626;2022-07-23T10:45:26;6.80;;;4.85;;
10643;SDS011;5370;50.132;8.626;2022-07-23T10:47:49;5.20;;;4.70;;
10643;SDS011;5370;50.132;8.626;2022-07-23T10:57:56;4.85;;;3.92;;
10643;SDS011;5370;50.132;8.626;2022-07-23T11:00:22;4.55;;;4.15;;
10643;SDS011;5370;50.132;8.626;2022-07-23T11:02:54;4.47;;;3.92;;
10643;SDS011;5370;50.132;8.626;2022-07-23T11:05:22;4.78;;;4.18;;
10643;SDS011;5370;50.132;8.626;2022-07-23T11:10:37;4.50;;;4.05;;
10643;SDS011;5370;50.132;8.626;2022-07-23T11:26:40;4.88;;;4.38;;
10643;SDS011;5370;50.132;8.626;2022-07-23T11:31:53;4.30;;;3.90;;
10643;SDS011;5370;50.132;8.626;2022-07-23T11:34:24;4.45;;;4.05;;
10643;SDS011;5370;50.132;8.626;2022-07-23T11:36:56;4.15;;;3.85;;
10643;SDS011;5370;50.132;8.626;2022-07-23T11:39:22;4.93;;;4.32;;
10643;SDS011;5370;50.132;8.626;2022-07-23T11:41:51;4.20;;;3.80;;
10643;SDS011;5370;50.132;8.626;2022-07-23T11:44:27;4.10;;;3.80;;
10643;SDS011;5370;50.132;8.626;2022-07-23T11:47:01;5.85;;;4.40;;
10643;SDS011;5370;50.132;8.626;2022-07-23T11:49:29;4.90;;;4.40;;
10643;SDS011;5370;50.132;8.626;2022-07-23T11:54:36;4.90;;;3.60;;
10643;SDS011;5370;50.132;8.626;2022-07-23T11:57:23;4.20;;;3.83;;
10643;SDS011;5370;50.132;8.626;2022-07-23T11:59:52;5.07;;;4.57;;
10643;SDS011;5370;50.132;8.626;2022-07-23T12:02:23;6.07;;;4.63;;
10643;SDS011;5370;50.132;8.626;2022-07-23T12:04:50;4.95;;;4.45;;
10643;SDS011;5370;50.132;8.626;2022-07-23T12:09:54;4.43;;;4.03;;
10643;SDS011;5370;50.132;8.626;2022-07-23T12:12:21;6.22;;;4.30;;
10643;SDS011;5370;50.132;8.626;2022-07-23T12:14:48;5.50;;;4.18;;
10643;SDS011;5370;50.132;8.626;2022-07-23T12:17:13;4.53;;;4.13;;
10643;SDS011;5370;50.132;8.626;2022-07-23T12:19:39;7.07;;;4.35;;
10643;SDS011;5370;50.132;8.626;2022-07-23T12:22:05;7.53;;;4.30;;
10643;SDS011;5370;50.132;8.626;2022-07-23T12:24:30;5.47;;;4.65;;
10643;SDS011;5370;50.132;8.626;2022-07-23T12:27:11;5.47;;;3.67;;
10643;SDS011;5370;50.132;8.626;2022-07-23T12:29:38;4.75;;;4.22;;
10643;SDS011;5370;50.132;8.626;2022-07-23T12:32:26;5.63;;;3.55;;
10643;SDS011;5370;50.132;8.626;2022-07-23T12:37:48;4.53;;;4.13;;
10643;SDS011;5370;50.132;8.626;2022-07-23T12:40:27;6.53;;;4.68;;
10643;SDS011;5370;50.132;8.626;2022-07-23T12:42:58;5.15;;;4.13;;
10643;SDS011;5370;50.132;8.626;2022-07-23T12:45:27;5.25;;;3.95;;
10643;SDS011;5370;50.132;8.626;2022-07-23T12:48:04;7.20;;;4.57;;
10643;SDS011;5370;50.132;8.626;2022-07-23T12:50:34;6.18;;;4.22;;
10643;SDS011;5370;50.132;8.626;2022-07-23T12:55:35;5.40;;;4.90;;
10643;SDS011;5370;50.132;8.626;2022-07-23T12:58:11;6.03;;;4.03;;
10643;SDS011;5370;50.132;8.626;2022-07-23T13:03:40;5.35;;;4.13;;
10643;SDS011;5370;50.132;8.626;2022-07-23T13:06:09;6.07;;;4.88;;
10643;SDS011;5370;50.132;8.626;2022-07-23T13:08:37;5.18;;;4.43;;
10643;SDS011;5370;50.132;8.626;2022-07-23T13:11:04;4.60;;;4.20;;
10643;SDS011;5370;50.132;8.626;2022-07-23T13:13:31;4.85;;;4.45;;
10643;SDS011;5370;50.132;8.626;2022-07-23T13:15:58;5.03;;;3.67;;
10643;SDS011;5370;50.132;8.626;2022-07-23T13:18:24;6.93;;;4.53;;
10643;SDS011;5370;50.132;8.626;2022-07-23T13:20:51;4.53;;;4.10;;
10643;SDS011;5370;50.132;8.626;2022-07-23T13:23:17;4.40;;;3.88;;
10643;SDS011;5370;50.132;8.626;2022-07-23T13:25:43;4.38;;;3.88;;
10643;SDS011;5370;50.132;8.626;2022-07-23T13:28:09;5.82;;;4.43;;
10643;SDS011;5370;50.132;8.626;2022-07-23T13:30:35;6.15;;;4.05;;
10643;SDS011;5370;50.132;8.626;2022-07-23T13:33:01;5.47;;;4.97;;
10643;SDS011;5370;50.132;8.626;2022-07-23T13:35:28;4.82;;;4.43;;
10643;SDS011;5370;50.132;8.626;2022-07-23T13:37:54;5.30;;;4.20;;
10643;SDS011;5370;50.132;8.626;2022-07-23T13:40:20;4.88;;;4.38;;
10643;SDS011;5370;50.132;8.626;2022-07-23T13:42:45;4.45;;;4.05;;
10643;SDS011;5370;50.132;8.626;2022-07-23T13:45:11;5.82;;;4.28;;
10643;SDS011;5370;50.132;8.626;2022-07-23T13:47:37;5.32;;;4.15;;
10643;SDS011;5370;50.132;8.626;2022-07-23T13:50:03;4.50;;;4.10;;
10643;SDS011;5370;50.132;8.626;2022-07-23T13:52:29;7.43;;;4.32;;
10643;SDS011;5370;50.132;8.626;2022-07-23T13:54:55;5.18;;;4.68;;
10643;SDS011;5370;50.132;8.626;2022-07-23T13:57:20;5.65;;;4.35;;
10643;SDS011;5370;50.132;8.626;2022-07-23T13:59:46;5.47;;;4.50;;
10643;SDS011;5370;50.132;8.626;2022-07-23T14:02:12;4.32;;;3.92;;
10643;SDS011;5370;50.132;8.626;2022-07-23T14:04:41;5.95;;;4.65;;
10643;SDS011;5370;50.132;8.626;2022-07-23T14:07:06;4.95;;;4.25;;
10643;SDS011;5370;50.132;8.626;2022-07-23T14:09:32;8.05;;;4.78;;
10643;SDS011;5370;50.132;8.626;2022-07-23T14:11:59;5.03;;;4.50;;
10643;SDS011;5370;50.132;8.626;2022-07-23T14:14:24;4.72;;;4.20;;
10643;SDS011;5370;50.132;8.626;2022-07-23T14:16:50;5.88;;;4.50;;
10643;SDS011;5370;50.132;8.626;2022-07-23T14:19:15;6.20;;;5.03;;
10643;SDS011;5370;50.132;8.626;2022-07-23T14:21:41;5.22;;;4.53;;
10643;SDS011;5370;50.132;8.626;2022-07-23T14:24:07;5.07;;;4.57;;
10643;SDS011;5370;50.132;8.626;2022-07-23T14:26:33;5.03;;;4.57;;
10643;SDS011;5370;50.132;8.626;2022-07-23T14:28:58;4.93;;;4.53;;
10643;SDS011;5370;50.132;8.626;2022-07-23T14:31:24;5.32;;;4.93;;
10643;SDS011;5370;50.132;8.626;2022-07-23T14:33:50;7.15;;;4.72;;
10643;SDS011;5370;50.132;8.626;2022-07-23T14:36:16;5.95;;;4.60;;
10643;SDS011;5370;50.132;8.626;2022-07-23T14:38:41;8.23;;;4.20;;
10643;SDS011;5370;50.132;8.626;2022-07-23T14:41:07;5.20;;;4.70;;
10643;SDS011;5370;50.132;8.626;2022-07-23T14:43:33;6.72;;;4.43;;
10643;SDS011;5370;50.132;8.626;2022-07-23T14:45:59;6.70;;;4.28;;
10643;SDS011;5370;50.132;8.626;2022-07-23T14:48:25;5.50;;;4.15;;
10643;SDS011;5370;50.132;8.626;2022-07-23T14:50:51;4.55;;;4.13;;
10643;SDS011;5370;50.132;8.626;2022-07-23T14:53:16;4.85;;;4.43;;
10643;SDS011;5370;50.132;8.626;2022-07-23T14:55:42;5.13;;;4.63;;
10643;SDS011;5370;50.132;8.626;2022-07-23T14:58:08;4.28;;;3.90;;
10643;SDS011;5370;50.132;8.626;2022-07-23T15:00:34;7.38;;;4.22;;
10643;SDS011;5370;50.132;8.626;2022-07-23T15:02:59;6.30;;;4.55;;
10643;SDS011;5370;50.132;8.626;2022-07-23T15:05:25;4.22;;;3.80;;
10643;SDS011;5370;50.132;8.626;2022-07-23T15:07:50;4.82;;;4.25;;
10643;SDS011;5370;50.132;8.626;2022-07-23T15:10:16;5.68;;;4.18;;
10643;SDS011;5370;50.132;8.626;2022-07-23T15:12:42;6.43;;;4.45;;
10643;SDS011;5370;50.132;8.626;2022-07-23T15:15:08;4.85;;;4.43;;
10643;SDS011;5370;50.132;8.626;2022-07-23T15:17:33;8.00;;;3.95;;
10643;SDS011;5370;50.132;8.626;2022-07-23T15:19:59;5.40;;;3.58;;
10643;SDS011;5370;50.132;8.626;2022-07-23T15:22:25;3.90;;;3.47;;
10643;SDS011;5370;50.132;8.626;2022-07-23T15:24:51;5.03;;;4.07;;
10643;SDS011;5370;50.132;8.626;2022-07-23T15:27:16;6.43;;;4.10;;
10643;SDS011;5370;50.132;8.626;2022-07-23T15:29:43;3.80;;;3.50;;
10643;SDS011;5370;50.132;8.626;2022-07-23T15:32:10;6.65;;;4.25;;
10643;SDS011;5370;50.132;8.626;2022-07-23T15:34:36;4.88;;;4.15;;
10643;SDS011;5370;50.132;8.626;2022-07-23T15:37:02;6.45;;;3.60;;
10643;SDS011;5370;50.132;8.626;2022-07-23T15:39:30;4.32;;;3.83;;
10643;SDS011;5370;50.132;8.626;2022-07-23T15:41:57;4.15;;;3.75;;
10643;SDS011;5370;50.132;8.626;2022-07-23T15:44:24;5.22;;;3.63;;
10643;SDS011;5370;50.132;8.626;2022-07-23T15:46:49;4.35;;;3.92;;
10643;SDS011;5370;50.132;8.626;2022-07-23T15:49:15;5.22;;;4.00;;
10643;SDS011;5370;50.132;8.626;2022-07-23T15:51:41;5.00;;;3.60;;
10643;SDS011;5370;50.132;8.626;2022-07-23T15:54:06;5.28;;;3.83;;